X  Schlie├čen METAR Luftfahrt Wetterdaten     ETAR Ramstein Air Base
Temperatur
24°C Temperatur
12°C Taupunkt
47% Feuchtigkeit



Wind
8 MPH
13 KM/H
4 M/S
7 KTS



50°
NO
Aktuelle Wetterlage

Klar Klar
Luftdruck 1014.22 (hPa) - 29.95 (inHg)
Sichtweite 6.2 (Meile) - 10 (Km)
Flughafen
Flughafen Code ETAR

Position : Ramstein Air Base
Entfernung: 25 (mi)

Metar:
ETAR 080955Z AUTO 05007KT 9999 CLR 24/12 A2995 RMK AO2 SLP144 T02420118

Zeit: 08-06-2023 11:55 CEST